Time;durP1;ratioP1;P1;durP2;ratioP2;P2;SDS_P1;SDS_P2;PMS_P1;PMS_P2;Temp;Humidity;BMP_temperature;BMP_pressure;BME280_temperature;BME280_humidity;BME280_pressure;Samples;Min_cycle;Max_cycle;Signal;HPM_P1;HPM_P2
2023/07/15 00:01:32;;;;;;;3.93;1.43;;;18.60;53.70;;;;;;5009960;28;20192;-68
2023/07/15 00:04:00;;;;;;;3.83;1.33;;;18.60;53.80;;;;;;5005053;28;20262;-66
2023/07/15 00:06:27;;;;;;;0.97;0.90;;;18.50;53.60;;;;;;5004106;28;20185;-65
2023/07/15 00:08:56;;;;;;;3.13;1.20;;;18.50;53.80;;;;;;5007436;28;20607;-65
2023/07/15 00:11:29;;;;;;;4.17;1.30;;;18.70;53.90;;;;;;5003454;28;20215;-65
2023/07/15 00:13:58;;;;;;;2.73;1.10;;;18.80;53.80;;;;;;5007086;28;20663;-66
2023/07/15 00:16:27;;;;;;;6.10;1.10;;;18.80;53.50;;;;;;5006360;28;20267;-65
2023/07/15 00:18:54;;;;;;;2.83;1.20;;;18.80;53.20;;;;;;5005795;28;20213;-69
2023/07/15 00:21:30;;;;;;;2.50;1.40;;;18.80;52.70;;;;;;5008624;28;20177;-66
2023/07/15 00:23:58;;;;;;;2.20;1.20;;;18.90;52.80;;;;;;5006066;28;20193;-69
2023/07/15 00:26:29;;;;;;;3.10;1.20;;;19.00;52.50;;;;;;5003024;28;20193;-66
2023/07/15 00:28:57;;;;;;;1.83;1.03;;;19.10;52.20;;;;;;5001622;28;20201;-66
2023/07/15 00:31:26;;;;;;;2.47;1.17;;;19.00;52.20;;;;;;4999552;28;20596;-67
2023/07/15 00:33:53;;;;;;;3.73;1.00;;;19.10;52.10;;;;;;4999509;28;20181;-69
2023/07/15 00:36:20;;;;;;;4.83;1.20;;;19.20;51.40;;;;;;5002203;28;20592;-66
2023/07/15 00:38:48;;;;;;;4.03;1.13;;;19.20;51.60;;;;;;5007010;28;20238;-67
2023/07/15 00:41:21;;;;;;;1.43;0.90;;;19.30;51.80;;;;;;5005635;28;20706;-65
2023/07/15 00:43:54;;;;;;;7.77;1.50;;;19.40;51.70;;;;;;5003664;28;20176;-67
2023/07/15 00:46:22;;;;;;;3.30;1.20;;;19.40;51.50;;;;;;4997288;28;20177;-65
2023/07/15 00:48:58;;;;;;;4.10;1.30;;;19.40;51.30;;;;;;5005717;28;20583;-67
2023/07/15 00:51:27;;;;;;;1.53;1.40;;;19.50;51.20;;;;;;5002463;28;20185;-67
2023/07/15 00:53:55;;;;;;;2.17;1.20;;;19.50;51.60;;;;;;5002996;28;20227;-67
2023/07/15 00:56:27;;;;;;;2.40;1.00;;;19.70;51.40;;;;;;5006132;28;20224;-67
2023/07/15 00:58:54;;;;;;;1.87;0.80;;;19.70;51.00;;;;;;5005505;28;20247;-66
2023/07/15 01:01:22;;;;;;;3.40;0.97;;;19.80;50.00;;;;;;5006268;28;20191;-66
2023/07/15 01:03:50;;;;;;;2.87;1.20;;;19.80;50.30;;;;;;5005829;28;20184;-67
2023/07/15 01:06:17;;;;;;;3.87;1.20;;;19.90;50.50;;;;;;4999177;28;20233;-66
2023/07/15 01:08:45;;;;;;;4.43;1.10;;;20.00;50.70;;;;;;5006059;28;20185;-65
2023/07/15 01:11:12;;;;;;;1.80;0.90;;;20.20;49.90;;;;;;5008044;28;20227;-67
2023/07/15 01:13:40;;;;;;;2.97;1.00;;;20.30;49.40;;;;;;5002321;28;20190;-69
2023/07/15 01:16:07;;;;;;;2.00;0.90;;;20.30;49.40;;;;;;5008121;28;20193;-68
2023/07/15 01:18:34;;;;;;;4.03;1.20;;;20.50;48.80;;;;;;4988185;28;20228;-66
2023/07/15 01:21:03;;;;;;;2.43;0.97;;;20.70;48.50;;;;;;5000548;28;20312;-65
2023/07/15 01:23:30;;;;;;;2.20;1.00;;;20.80;48.00;;;;;;5007307;28;20221;-67
2023/07/15 01:25:58;;;;;;;2.73;1.10;;;20.90;47.50;;;;;;5005465;28;20217;-65
2023/07/15 01:28:25;;;;;;;1.33;0.87;;;20.90;48.10;;;;;;5002721;28;20527;-66
2023/07/15 01:30:52;;;;;;;2.00;1.20;;;21.00;48.00;;;;;;5003466;28;20180;-66
2023/07/15 01:33:20;;;;;;;3.40;0.73;;;21.10;48.00;;;;;;5002726;28;20220;-65
2023/07/15 01:35:48;;;;;;;3.03;0.90;;;21.00;47.90;;;;;;4987656;28;20209;-66
2023/07/15 01:38:16;;;;;;;2.17;0.80;;;21.20;46.80;;;;;;5000526;28;20264;-66
2023/07/15 01:40:44;;;;;;;6.00;1.10;;;21.40;45.80;;;;;;5002103;28;20189;-69
2023/07/15 01:43:12;;;;;;;2.00;1.03;;;21.60;45.80;;;;;;4988747;28;20670;-67
2023/07/15 01:45:39;;;;;;;2.07;0.90;;;21.60;46.20;;;;;;4998153;28;20232;-68
2023/07/15 01:48:10;;;;;;;4.93;1.10;;;21.70;46.00;;;;;;5002845;28;20272;-67
2023/07/15 01:50:39;;;;;;;3.27;1.07;;;21.80;45.60;;;;;;5007329;28;20221;-67
2023/07/15 01:53:07;;;;;;;2.00;0.80;;;21.90;45.20;;;;;;5001858;28;20186;-66
2023/07/15 01:55:34;;;;;;;1.50;0.90;;;22.20;44.90;;;;;;5004822;28;20198;-66
2023/07/15 01:58:01;;;;;;;1.20;1.10;;;22.30;44.40;;;;;;5001411;28;20222;-68
2023/07/15 02:00:29;;;;;;;2.27;1.20;;;22.50;43.90;;;;;;5007813;28;20197;-66
2023/07/15 02:02:56;;;;;;;3.73;1.20;;;22.80;43.70;;;;;;5008239;28;20554;-67
2023/07/15 02:05:24;;;;;;;3.87;1.10;;;22.80;43.60;;;;;;5009873;28;20181;-67
2023/07/15 02:07:51;;;;;;;1.40;1.07;;;22.80;43.10;;;;;;4993603;28;20189;-65
2023/07/15 02:10:18;;;;;;;6.40;1.03;;;22.80;42.50;;;;;;5008365;28;20197;-68
2023/07/15 02:12:46;;;;;;;3.37;1.07;;;22.80;42.80;;;;;;5004513;28;20177;-66
2023/07/15 02:15:13;;;;;;;3.77;1.00;;;23.00;42.10;;;;;;5002057;28;20333;-68
2023/07/15 02:17:43;;;;;;;3.43;0.70;;;23.10;40.20;;;;;;5008364;28;20315;-66
2023/07/15 02:20:12;;;;;;;0.73;0.60;;;23.10;39.00;;;;;;5006169;28;20188;-67
2023/07/15 02:22:41;;;;;;;2.90;0.70;;;23.00;40.00;;;;;;5006260;28;20558;-67
2023/07/15 02:25:09;;;;;;;1.67;1.07;;;23.10;39.50;;;;;;5005367;28;20547;-66
2023/07/15 02:27:36;;;;;;;1.40;0.90;;;23.30;38.90;;;;;;5008111;28;20276;-66
2023/07/15 02:30:06;;;;;;;1.47;0.80;;;23.30;38.80;;;;;;5002269;28;20206;-65
2023/07/15 02:32:41;;;;;;;2.30;0.83;;;23.30;38.00;;;;;;5005268;28;20195;-67
2023/07/15 02:38:43;;;;;;;1.87;0.93;;;23.40;38.30;;;;;;4411281;28;22126;-65
2023/07/15 02:41:12;;;;;;;3.40;1.00;;;23.40;37.70;;;;;;5010194;28;20193;-65
2023/07/15 02:43:39;;;;;;;1.60;0.80;;;23.50;37.50;;;;;;5010423;28;20193;-65
2023/07/15 02:46:06;;;;;;;1.33;0.97;;;23.30;37.90;;;;;;5012199;28;20189;-66
2023/07/15 02:48:34;;;;;;;1.73;0.90;;;23.30;37.70;;;;;;5009205;28;20197;-65
2023/07/15 02:51:01;;;;;;;1.77;1.10;;;23.40;38.20;;;;;;5009987;28;20217;-68
2023/07/15 02:53:29;;;;;;;3.87;1.33;;;23.50;38.70;;;;;;5010941;28;20235;-66
2023/07/15 02:55:56;;;;;;;2.00;1.23;;;23.70;37.90;;;;;;4994256;28;20190;-66
2023/07/15 02:58:24;;;;;;;1.70;1.03;;;24.00;37.70;;;;;;5012143;28;20230;-65
2023/07/15 03:00:54;;;;;;;3.13;1.40;;;24.30;37.30;;;;;;5006539;28;20178;-65
2023/07/15 03:03:21;;;;;;;5.80;1.30;;;24.30;37.10;;;;;;4990098;28;20659;-70
2023/07/15 03:05:54;;;;;;;4.00;1.30;;;24.30;36.60;;;;;;5002697;28;20193;-66
2023/07/15 03:08:21;;;;;;;4.07;1.40;;;23.80;37.40;;;;;;5006326;28;20232;-66
2023/07/15 03:10:49;;;;;;;1.83;1.10;;;24.10;37.10;;;;;;5004866;28;20176;-66
2023/07/15 03:13:17;;;;;;;6.53;1.07;;;24.30;36.90;;;;;;5012443;28;20227;-66
2023/07/15 03:15:44;;;;;;;2.77;1.23;;;24.30;33.20;;;;;;5009519;28;20178;-68
2023/07/15 03:18:12;;;;;;;5.97;0.90;;;24.00;32.50;;;;;;5010367;28;20304;-66
2023/07/15 03:20:39;;;;;;;1.93;0.83;;;23.80;32.20;;;;;;5006095;28;20261;-66
2023/07/15 03:23:07;;;;;;;4.20;1.00;;;23.80;32.70;;;;;;4999589;28;20736;-69
2023/07/15 03:25:34;;;;;;;2.83;0.83;;;24.00;32.40;;;;;;4989916;28;20228;-68
2023/07/15 03:28:02;;;;;;;4.20;0.87;;;24.20;32.40;;;;;;5012005;28;20189;-67
2023/07/15 03:30:29;;;;;;;1.20;0.73;;;24.00;32.10;;;;;;4989099;28;20684;-67
2023/07/15 03:32:57;;;;;;;5.37;1.17;;;24.30;32.20;;;;;;5008132;28;20193;-66
2023/07/15 03:35:25;;;;;;;1.17;0.77;;;24.50;32.10;;;;;;5003645;28;20193;-71
2023/07/15 03:37:52;;;;;;;1.83;0.90;;;24.70;31.50;;;;;;5006331;28;20213;-65
2023/07/15 03:40:19;;;;;;;2.57;0.93;;;24.70;31.90;;;;;;5008815;28;20236;-66
2023/07/15 03:42:47;;;;;;;1.80;0.67;;;24.70;31.20;;;;;;5012914;28;20236;-66
2023/07/15 03:45:14;;;;;;;3.20;1.00;;;24.80;31.00;;;;;;5001275;28;20189;-64
2023/07/15 03:47:41;;;;;;;1.70;0.77;;;24.70;31.20;;;;;;5010975;28;20217;-66
2023/07/15 03:50:09;;;;;;;1.60;0.83;;;24.80;30.80;;;;;;5001760;28;20185;-68
2023/07/15 03:52:37;;;;;;;5.43;0.90;;;24.70;31.00;;;;;;5007127;28;20229;-77
2023/07/15 03:55:05;;;;;;;2.90;1.00;;;25.10;30.50;;;;;;5007941;28;20193;-72
2023/07/15 03:57:33;;;;;;;2.37;0.87;;;24.90;30.50;;;;;;5011017;28;20640;-71
2023/07/15 04:00:00;;;;;;;2.27;0.80;;;24.80;30.10;;;;;;5005210;28;20706;-72
2023/07/15 04:02:28;;;;;;;2.30;1.10;;;24.80;30.30;;;;;;5007669;28;20554;-70
2023/07/15 04:04:55;;;;;;;1.87;0.60;;;24.80;30.30;;;;;;5009411;28;20189;-72
2023/07/15 04:07:22;;;;;;;1.73;0.90;;;24.90;30.20;;;;;;5007647;28;20639;-69
2023/07/15 04:09:50;;;;;;;0.77;0.70;;;25.10;29.70;;;;;;5008712;28;20243;-70
2023/07/15 04:12:17;;;;;;;1.80;0.70;;;25.20;30.10;;;;;;4992749;28;20217;-68
2023/07/15 04:14:45;;;;;;;3.03;0.97;;;25.30;30.10;;;;;;5002866;28;20193;-72
2023/07/15 04:17:12;;;;;;;1.73;0.70;;;25.00;30.00;;;;;;4992311;28;20543;-72
2023/07/15 04:19:40;;;;;;;4.47;1.23;;;25.30;30.10;;;;;;5004397;28;20194;-69
2023/07/15 04:22:07;;;;;;;1.60;1.10;;;25.00;30.30;;;;;;5004687;28;20182;-71
2023/07/15 04:24:34;;;;;;;3.87;0.73;;;25.00;30.20;;;;;;5008274;28;20552;-68
2023/07/15 04:27:02;;;;;;;2.70;1.00;;;24.80;30.20;;;;;;5008218;28;20188;-68
2023/07/15 04:29:31;;;;;;;2.50;1.07;;;24.70;30.80;;;;;;5001812;28;20189;-67
2023/07/15 04:31:59;;;;;;;3.00;1.13;;;24.60;30.90;;;;;;5008994;28;20296;-67
2023/07/15 04:34:26;;;;;;;1.87;0.77;;;24.80;30.90;;;;;;5007446;28;20177;-70
2023/07/15 04:36:53;;;;;;;1.13;0.83;;;24.70;31.20;;;;;;5008957;28;20197;-68
2023/07/15 04:39:21;;;;;;;1.10;0.70;;;24.50;31.50;;;;;;5004394;28;20315;-70
2023/07/15 04:41:48;;;;;;;4.07;0.90;;;24.50;31.70;;;;;;4992183;28;20651;-66
2023/07/15 04:44:16;;;;;;;1.40;0.90;;;24.90;31.00;;;;;;5001441;28;20598;-74
2023/07/15 04:46:43;;;;;;;2.33;0.80;;;25.00;31.00;;;;;;5005199;28;20272;-74
2023/07/15 04:49:12;;;;;;;2.60;0.97;;;24.70;31.10;;;;;;5003935;28;20269;-68
2023/07/15 04:51:39;;;;;;;1.13;0.80;;;24.70;31.50;;;;;;5009755;28;20189;-66
2023/07/15 04:54:07;;;;;;;1.27;0.80;;;25.10;31.00;;;;;;5000156;28;20177;-68
2023/07/15 04:56:35;;;;;;;2.60;0.70;;;25.40;30.90;;;;;;5008217;28;20193;-67
2023/07/15 04:59:02;;;;;;;1.43;0.80;;;25.30;30.80;;;;;;5004757;28;20648;-73
2023/07/15 05:01:30;;;;;;;0.97;0.70;;;25.10;31.00;;;;;;5000651;28;20178;-65
2023/07/15 05:03:59;;;;;;;4.43;0.97;;;25.10;31.60;;;;;;5000791;28;20193;-65
2023/07/15 05:06:27;;;;;;;4.33;1.10;;;25.30;31.30;;;;;;4999757;28;20182;-67
2023/07/15 05:08:54;;;;;;;4.57;0.93;;;25.30;30.90;;;;;;5001332;28;20639;-68
2023/07/15 05:11:22;;;;;;;1.27;0.70;;;25.30;31.30;;;;;;5009360;28;20185;-67
2023/07/15 05:13:49;;;;;;;4.77;0.80;;;25.20;31.10;;;;;;5004880;28;20641;-67
2023/07/15 05:16:17;;;;;;;1.57;0.87;;;24.90;31.70;;;;;;5010322;28;20235;-65
2023/07/15 05:18:44;;;;;;;3.90;0.87;;;24.60;32.40;;;;;;4986192;28;20220;-64
2023/07/15 05:21:11;;;;;;;1.63;0.97;;;24.50;32.70;;;;;;5002001;28;20188;-65
2023/07/15 05:23:39;;;;;;;3.03;0.93;;;24.30;32.50;;;;;;5000684;28;20204;-65
2023/07/15 05:26:06;;;;;;;3.37;1.17;;;24.80;32.50;;;;;;5001953;28;20235;-66
2023/07/15 05:28:35;;;;;;;3.87;0.90;;;25.20;31.80;;;;;;5004158;28;20636;-65
2023/07/15 05:31:03;;;;;;;4.50;1.07;;;24.90;32.00;;;;;;5003204;28;20197;-67
2023/07/15 05:33:31;;;;;;;3.03;0.93;;;25.00;32.00;;;;;;5007109;28;20244;-76
2023/07/15 05:36:00;;;;;;;1.67;1.10;;;24.90;31.70;;;;;;5006725;28;20189;-64
2023/07/15 05:38:28;;;;;;;1.30;1.00;;;24.80;32.50;;;;;;5013142;28;20275;-66
2023/07/15 05:40:56;;;;;;;1.17;0.90;;;24.60;32.60;;;;;;5007171;28;20371;-64
2023/07/15 05:43:23;;;;;;;2.57;1.10;;;24.30;32.90;;;;;;5013241;28;20617;-69
2023/07/15 05:45:50;;;;;;;1.80;1.00;;;24.50;32.90;;;;;;5008746;28;20182;-67
2023/07/15 05:48:18;;;;;;;2.70;1.10;;;25.00;32.30;;;;;;5012130;28;20188;-65
2023/07/15 05:50:46;;;;;;;2.57;1.03;;;25.10;32.10;;;;;;5009465;28;20213;-65
2023/07/15 05:53:13;;;;;;;2.53;1.20;;;24.60;33.10;;;;;;5010960;28;20586;-65
2023/07/15 05:55:40;;;;;;;1.93;0.90;;;24.10;33.60;;;;;;5009766;28;20311;-66
2023/07/15 05:58:09;;;;;;;1.63;0.80;;;23.80;34.10;;;;;;5003668;28;20205;-71
2023/07/15 06:00:41;;;;;;;2.33;1.00;;;24.00;34.00;;;;;;5010952;28;20188;-65
2023/07/15 06:03:08;;;;;;;1.87;1.17;;;23.80;34.30;;;;;;5012714;28;20181;-67
2023/07/15 06:05:36;;;;;;;2.27;1.37;;;23.90;34.40;;;;;;5011036;28;20189;-67
2023/07/15 06:08:03;;;;;;;3.10;1.90;;;23.80;34.10;;;;;;5003606;28;20181;-67
2023/07/15 06:10:31;;;;;;;4.30;1.47;;;23.90;34.30;;;;;;5010131;28;20189;-64
2023/07/15 06:12:58;;;;;;;4.07;1.20;;;24.00;34.20;;;;;;5010466;28;20209;-66
2023/07/15 06:15:25;;;;;;;2.77;1.20;;;23.80;34.60;;;;;;5010799;28;20178;-65
2023/07/15 06:17:55;;;;;;;1.80;1.20;;;23.50;35.00;;;;;;5010961;28;20226;-69
2023/07/15 06:20:23;;;;;;;3.63;1.30;;;23.20;35.50;;;;;;5008226;28;20177;-66
2023/07/15 06:22:50;;;;;;;2.10;0.83;;;23.10;35.60;;;;;;4993229;28;20709;-66
2023/07/15 06:25:18;;;;;;;2.73;1.07;;;22.90;36.20;;;;;;5012364;28;20185;-65
2023/07/15 06:27:45;;;;;;;1.37;1.00;;;22.80;36.30;;;;;;5003019;28;20190;-65
2023/07/15 06:30:13;;;;;;;4.07;1.30;;;22.60;36.70;;;;;;4994588;28;20173;-65
2023/07/15 06:32:40;;;;;;;4.10;1.20;;;22.50;37.10;;;;;;5001919;28;20197;-71
2023/07/15 06:35:08;;;;;;;1.80;1.07;;;22.30;36.90;;;;;;5012902;28;20209;-67
2023/07/15 06:37:36;;;;;;;1.60;1.00;;;22.30;37.30;;;;;;5008370;28;20552;-65
2023/07/15 06:40:04;;;;;;;2.33;1.10;;;22.10;37.50;;;;;;5006288;28;20233;-67
2023/07/15 06:42:32;;;;;;;1.47;1.00;;;22.00;37.80;;;;;;5006691;28;20186;-65
2023/07/15 06:44:59;;;;;;;2.77;1.00;;;21.90;38.00;;;;;;5007941;28;20696;-65
2023/07/15 06:47:26;;;;;;;2.37;1.07;;;21.80;38.40;;;;;;5005342;28;20551;-66
2023/07/15 06:49:54;;;;;;;5.40;1.30;;;21.70;38.70;;;;;;5008080;28;20197;-66
2023/07/15 06:52:21;;;;;;;3.47;1.17;;;21.60;39.00;;;;;;5005175;28;20186;-68
2023/07/15 06:54:50;;;;;;;2.83;1.10;;;21.50;39.00;;;;;;5013383;28;20185;-66
2023/07/15 06:57:17;;;;;;;3.40;1.00;;;21.40;39.10;;;;;;5009857;28;20181;-67
2023/07/15 06:59:48;;;;;;;4.30;1.60;;;21.30;39.30;;;;;;5010501;28;20640;-71
2023/07/15 07:02:15;;;;;;;3.63;1.10;;;21.30;39.40;;;;;;5007717;28;20721;-70
2023/07/15 07:04:42;;;;;;;2.30;1.10;;;21.30;39.60;;;;;;5007056;28;20672;-72
2023/07/15 07:07:10;;;;;;;2.80;1.40;;;21.20;39.90;;;;;;5002798;28;20210;-68
2023/07/15 07:09:37;;;;;;;1.80;1.40;;;21.10;40.20;;;;;;5009080;28;20180;-73
2023/07/15 07:12:05;;;;;;;1.57;1.20;;;21.00;40.20;;;;;;5002664;28;20537;-72
2023/07/15 07:14:32;;;;;;;3.73;1.50;;;20.90;40.60;;;;;;5009841;28;20181;-72
2023/07/15 07:16:59;;;;;;;4.63;1.50;;;20.80;40.80;;;;;;5003021;28;20169;-69
2023/07/15 07:19:27;;;;;;;2.37;1.33;;;20.70;41.40;;;;;;5003302;28;20746;-68
2023/07/15 07:21:54;;;;;;;2.23;1.20;;;20.60;41.60;;;;;;5003162;28;20185;-65
2023/07/15 07:24:22;;;;;;;5.50;1.70;;;20.50;41.80;;;;;;5005503;28;20728;-69
2023/07/15 07:26:50;;;;;;;4.17;1.50;;;20.40;42.20;;;;;;5004731;28;20523;-67
2023/07/15 07:29:17;;;;;;;2.47;1.17;;;20.30;42.30;;;;;;5006537;28;20311;-68
2023/07/15 07:31:45;;;;;;;3.23;1.70;;;20.30;42.50;;;;;;5007633;28;20185;-67
2023/07/15 07:34:12;;;;;;;8.20;1.70;;;20.20;42.90;;;;;;5003767;28;20177;-67
2023/07/15 07:36:40;;;;;;;4.03;1.67;;;20.10;43.20;;;;;;5006665;28;20182;-67
2023/07/15 07:39:07;;;;;;;3.20;1.83;;;20.00;43.50;;;;;;5008127;28;20279;-74
2023/07/15 07:41:34;;;;;;;2.93;1.77;;;19.80;43.70;;;;;;5012213;28;20235;-67
2023/07/15 07:44:05;;;;;;;3.53;2.00;;;19.80;43.90;;;;;;5008563;28;20247;-69
2023/07/15 07:46:32;;;;;;;4.80;3.03;;;19.70;44.60;;;;;;5009448;28;20255;-70
2023/07/15 07:48:59;;;;;;;3.90;3.07;;;19.60;44.60;;;;;;5005024;28;20193;-71
2023/07/15 07:51:27;;;;;;;6.40;4.83;;;19.60;44.50;;;;;;5002499;28;20268;-74
2023/07/15 07:53:54;;;;;;;14.30;10.37;;;19.60;45.00;;;;;;5006720;28;20250;-67
2023/07/15 07:56:23;;;;;;;23.30;17.63;;;19.50;44.90;;;;;;5005067;28;20186;-74
2023/07/15 07:58:57;;;;;;;13.27;7.63;;;19.50;44.80;;;;;;5001821;28;20271;-75
2023/07/15 08:01:25;;;;;;;6.73;3.37;;;19.50;44.80;;;;;;5002615;28;20663;-70
2023/07/15 08:03:55;;;;;;;5.70;2.63;;;19.40;45.30;;;;;;5006888;28;20189;-73
2023/07/15 08:06:23;;;;;;;5.60;2.70;;;19.40;45.40;;;;;;5005076;28;20186;-71
2023/07/15 08:08:50;;;;;;;5.93;2.50;;;19.40;45.10;;;;;;5008815;28;20586;-68
2023/07/15 08:11:18;;;;;;;7.37;2.60;;;19.40;45.00;;;;;;5009755;28;20229;-70
2023/07/15 08:13:45;;;;;;;4.87;2.47;;;19.50;44.90;;;;;;5008425;28;20196;-70
2023/07/15 08:16:39;;;;;;;3.37;2.10;;;19.50;44.80;;;;;;5003781;28;20186;-74
2023/07/15 08:19:07;;;;;;;5.70;2.33;;;19.40;45.20;;;;;;4988421;28;20304;-66
2023/07/15 08:21:35;;;;;;;5.07;2.70;;;19.40;45.50;;;;;;5006726;28;20224;-72
2023/07/15 08:24:02;;;;;;;4.43;3.40;;;19.30;45.80;;;;;;5006552;28;20189;-76
2023/07/15 08:26:30;;;;;;;5.23;3.57;;;19.30;46.30;;;;;;5006139;28;20180;-67
2023/07/15 08:28:58;;;;;;;5.40;2.93;;;19.20;46.40;;;;;;5002365;28;20339;-67
2023/07/15 08:31:26;;;;;;;6.40;2.40;;;19.20;46.30;;;;;;5004157;28;20197;-68
2023/07/15 08:33:53;;;;;;;5.77;2.70;;;19.20;46.30;;;;;;5004529;28;20247;-77
2023/07/15 08:36:22;;;;;;;4.87;3.13;;;19.10;46.00;;;;;;5005932;28;20260;-73
2023/07/15 08:38:50;;;;;;;5.77;2.70;;;19.10;46.40;;;;;;5004990;28;20686;-68
2023/07/15 08:41:19;;;;;;;4.83;2.50;;;19.10;46.60;;;;;;5007052;28;20268;-72
2023/07/15 08:43:46;;;;;;;5.20;2.57;;;19.00;46.80;;;;;;5005965;28;20195;-72
2023/07/15 08:46:25;;;;;;;5.20;2.33;;;19.00;46.60;;;;;;5005075;28;20231;-71
2023/07/15 08:48:57;;;;;;;3.87;2.70;;;19.00;47.40;;;;;;5004596;28;20582;-75
2023/07/15 08:51:29;;;;;;;3.07;2.73;;;19.00;47.80;;;;;;5005285;28;20725;-72
2023/07/15 08:53:59;;;;;;;4.43;3.40;;;18.80;48.50;;;;;;5005192;28;20636;-70
2023/07/15 08:56:27;;;;;;;8.70;3.00;;;18.80;48.30;;;;;;5005466;28;20199;-69
2023/07/15 08:58:55;;;;;;;5.27;3.23;;;18.70;48.30;;;;;;4999133;28;20926;-72
2023/07/15 09:01:22;;;;;;;5.23;3.20;;;18.70;49.10;;;;;;5003695;28;20181;-74
2023/07/15 09:03:49;;;;;;;6.70;3.67;;;18.60;49.20;;;;;;5012319;28;20188;-72
2023/07/15 09:06:17;;;;;;;5.30;3.77;;;18.50;49.10;;;;;;5004236;28;20227;-66
2023/07/15 09:08:50;;;;;;;6.50;3.60;;;18.40;48.70;;;;;;5007675;28;20541;-66
2023/07/15 09:11:17;;;;;;;6.97;3.83;;;18.40;48.90;;;;;;5005164;28;20182;-69
2023/07/15 09:13:46;;;;;;;8.70;3.43;;;18.40;49.50;;;;;;5000960;28;20673;-68
2023/07/15 09:16:14;;;;;;;7.13;3.63;;;18.30;49.10;;;;;;5007510;28;20250;-70
2023/07/15 09:18:43;;;;;;;5.50;3.20;;;18.30;49.50;;;;;;5006340;28;20687;-73
2023/07/15 09:21:15;;;;;;;6.80;3.60;;;18.20;49.70;;;;;;5004525;28;20549;-69
2023/07/15 09:23:44;;;;;;;6.97;3.70;;;18.20;50.20;;;;;;5005529;28;20182;-73
2023/07/15 09:26:12;;;;;;;7.87;4.20;;;18.10;50.20;;;;;;5007254;28;20242;-75
2023/07/15 09:28:41;;;;;;;5.63;4.03;;;18.00;49.90;;;;;;5003522;28;20246;-74
2023/07/15 09:31:08;;;;;;;10.37;4.47;;;18.00;50.00;;;;;;5003071;28;20197;-70
2023/07/15 09:33:40;;;;;;;8.17;4.00;;;18.00;49.90;;;;;;5007005;28;20235;-67
2023/07/15 09:36:11;;;;;;;5.50;4.73;;;18.00;49.60;;;;;;5006786;28;20189;-71
2023/07/15 09:38:40;;;;;;;5.63;4.00;;;18.00;49.10;;;;;;4996908;28;20249;-69
2023/07/15 09:41:09;;;;;;;5.90;3.30;;;18.10;49.40;;;;;;5007149;28;20302;-75
2023/07/15 09:43:50;;;;;;;8.60;4.50;;;18.10;49.00;;;;;;5004539;28;20590;-71
2023/07/15 09:46:19;;;;;;;7.47;4.03;;;18.10;48.90;;;;;;5007703;28;20189;-69
2023/07/15 09:48:51;;;;;;;8.03;3.33;;;18.10;49.30;;;;;;5004907;28;20177;-70
2023/07/15 09:51:19;;;;;;;6.87;2.83;;;18.00;49.50;;;;;;5000828;28;20193;-72
2023/07/15 09:53:51;;;;;;;5.77;3.30;;;18.00;49.00;;;;;;5004959;28;20178;-69
2023/07/15 09:56:31;;;;;;;4.60;3.37;;;18.00;48.90;;;;;;5003211;28;20199;-67
2023/07/15 09:59:14;;;;;;;8.00;3.17;;;18.00;49.20;;;;;;5007903;28;20579;-72
2023/07/15 10:02:00;;;;;;;6.07;3.03;;;17.90;49.60;;;;;;5002228;28;20671;-71
2023/07/15 10:04:34;;;;;;;4.70;2.93;;;17.80;50.00;;;;;;5007944;28;20262;-67
2023/07/15 10:07:03;;;;;;;9.73;3.23;;;17.80;50.00;;;;;;4999890;28;20640;-70
2023/07/15 10:09:32;;;;;;;4.57;3.27;;;17.80;49.90;;;;;;4996639;28;20276;-69
2023/07/15 10:12:01;;;;;;;5.90;3.40;;;17.80;49.50;;;;;;4999773;28;20271;-70
2023/07/15 10:14:31;;;;;;;6.77;3.67;;;17.90;49.30;;;;;;4995857;28;20418;-68
2023/07/15 10:17:11;;;;;;;9.13;3.00;;;17.80;49.80;;;;;;5004523;28;20563;-76
2023/07/15 10:19:44;;;;;;;5.63;3.57;;;17.80;49.90;;;;;;5006223;28;20200;-70
2023/07/15 10:22:13;;;;;;;5.20;3.53;;;17.80;50.10;;;;;;5008980;28;20176;-69
2023/07/15 10:24:53;;;;;;;6.73;3.70;;;17.80;49.80;;;;;;5006562;28;20193;-67
2023/07/15 10:27:20;;;;;;;5.50;3.83;;;17.80;51.00;;;;;;5007889;28;20181;-67
2023/07/15 10:30:07;;;;;;;5.07;3.13;;;17.80;51.00;;;;;;5007701;28;20204;-69
2023/07/15 10:32:35;;;;;;;6.23;3.37;;;17.80;50.70;;;;;;5004262;28;20184;-68
2023/07/15 10:35:05;;;;;;;7.10;3.27;;;17.80;50.10;;;;;;5009569;28;20276;-74
2023/07/15 10:37:34;;;;;;;7.07;3.73;;;17.80;49.40;;;;;;5011579;28;20203;-74
2023/07/15 10:40:02;;;;;;;5.30;3.50;;;17.90;49.00;;;;;;5009414;28;20312;-68
2023/07/15 10:42:37;;;;;;;6.87;3.77;;;18.00;49.10;;;;;;5006474;28;20177;-70
2023/07/15 10:45:05;;;;;;;4.97;3.53;;;17.90;49.40;;;;;;5004130;28;20642;-69
2023/07/15 10:47:44;;;;;;;6.43;2.90;;;18.00;49.30;;;;;;4987829;28;20201;-68
2023/07/15 10:50:11;;;;;;;8.27;3.27;;;18.00;48.70;;;;;;5007422;28;20184;-73
2023/07/15 10:52:39;;;;;;;6.60;3.63;;;18.00;48.90;;;;;;5009843;28;20196;-69
2023/07/15 10:55:06;;;;;;;7.20;3.97;;;18.00;48.90;;;;;;5007894;28;20279;-75
2023/07/15 10:57:37;;;;;;;5.00;3.47;;;18.00;49.10;;;;;;5008493;28;20233;-77
2023/07/15 11:00:09;;;;;;;8.40;4.17;;;18.00;48.80;;;;;;5008191;28;20197;-69
2023/07/15 11:02:36;;;;;;;6.57;3.80;;;18.00;48.70;;;;;;5007390;28;21231;-69
2023/07/15 11:05:06;;;;;;;6.80;3.37;;;18.10;48.20;;;;;;5004612;28;20225;-74
2023/07/15 11:07:35;;;;;;;6.47;3.97;;;18.20;48.20;;;;;;5002488;28;20208;-73
2023/07/15 11:10:03;;;;;;;9.17;4.00;;;18.20;48.00;;;;;;5001508;28;20564;-70
2023/07/15 11:12:33;;;;;;;7.03;3.80;;;18.20;48.10;;;;;;5008657;28;20191;-69
2023/07/15 11:15:00;;;;;;;8.27;4.37;;;18.30;47.50;;;;;;5002464;28;20290;-68
2023/07/15 11:17:27;;;;;;;7.07;4.53;;;18.30;47.40;;;;;;5004223;28;20565;-70
2023/07/15 11:19:55;;;;;;;8.03;4.33;;;18.30;47.70;;;;;;5006444;28;20193;-71
2023/07/15 11:22:22;;;;;;;6.80;4.50;;;18.30;48.00;;;;;;5002720;28;20178;-71
2023/07/15 11:24:50;;;;;;;8.23;4.77;;;18.20;47.90;;;;;;5005789;28;20196;-73
2023/07/15 11:27:18;;;;;;;15.57;6.50;;;18.20;47.90;;;;;;5001477;28;20272;-75
2023/07/15 11:29:46;;;;;;;8.80;6.03;;;18.20;48.00;;;;;;5006952;28;20666;-70
2023/07/15 11:32:15;;;;;;;11.70;5.50;;;18.20;47.90;;;;;;5003526;28;20181;-67
2023/07/15 11:34:42;;;;;;;10.10;5.27;;;18.20;48.00;;;;;;5007488;28;20311;-67
2023/07/15 11:37:10;;;;;;;6.37;4.87;;;18.10;47.70;;;;;;4998977;28;20714;-77
2023/07/15 11:39:44;;;;;;;10.40;5.07;;;18.10;47.80;;;;;;5007462;28;20237;-69
2023/07/15 11:42:12;;;;;;;8.83;5.50;;;18.10;47.80;;;;;;5007858;28;20213;-67
2023/07/15 11:44:40;;;;;;;7.67;4.90;;;18.00;47.80;;;;;;5008161;28;20180;-74
2023/07/15 11:47:07;;;;;;;7.50;4.50;;;18.00;48.00;;;;;;5002442;28;20272;-67
2023/07/15 11:49:46;;;;;;;6.63;4.17;;;17.90;48.00;;;;;;5008431;28;20251;-72
2023/07/15 11:52:22;;;;;;;10.17;3.70;;;17.90;48.20;;;;;;5005193;28;20185;-69
2023/07/15 11:54:50;;;;;;;6.30;3.70;;;17.80;48.00;;;;;;5002118;28;20189;-74
2023/07/15 11:57:43;;;;;;;6.70;3.20;;;17.80;48.10;;;;;;5008020;28;20185;-70
2023/07/15 12:00:36;;;;;;;5.43;3.43;;;17.80;48.30;;;;;;5001194;28;20243;-76
2023/07/15 12:03:09;;;;;;;7.73;4.60;;;17.80;48.30;;;;;;5008747;28;20941;-73
2023/07/15 12:05:40;;;;;;;7.17;3.30;;;17.70;48.50;;;;;;5006146;28;20315;-75
2023/07/15 12:08:14;;;;;;;5.57;3.70;;;17.60;48.70;;;;;;5007298;28;20185;-73
2023/07/15 12:10:51;;;;;;;5.90;2.97;;;17.60;49.30;;;;;;5007558;28;20192;-73
2023/07/15 12:13:18;;;;;;;5.10;2.77;;;17.60;49.00;;;;;;5004971;28;20189;-73
2023/07/15 12:15:46;;;;;;;4.10;2.67;;;17.50;49.20;;;;;;5008931;28;20188;-69
2023/07/15 12:18:13;;;;;;;4.27;2.70;;;17.50;49.10;;;;;;5008519;28;20225;-71
2023/07/15 12:20:41;;;;;;;3.43;2.50;;;17.50;49.10;;;;;;5006109;28;20236;-74
2023/07/15 12:23:09;;;;;;;3.23;2.20;;;17.50;49.00;;;;;;5006845;28;20188;-66
2023/07/15 12:25:36;;;;;;;2.40;1.80;;;17.50;49.00;;;;;;5009122;28;20534;-67
2023/07/15 12:28:04;;;;;;;4.60;2.67;;;17.50;49.00;;;;;;4999495;28;20281;-67
2023/07/15 12:30:31;;;;;;;4.53;2.03;;;17.50;49.10;;;;;;5003238;28;20617;-67
2023/07/15 12:32:58;;;;;;;2.83;1.90;;;17.50;49.30;;;;;;5001602;28;20211;-69
2023/07/15 12:35:26;;;;;;;4.33;1.80;;;17.40;49.10;;;;;;5000650;28;20185;-68
2023/07/15 12:37:53;;;;;;;3.87;1.97;;;17.50;48.80;;;;;;5003500;28;20213;-75
2023/07/15 12:40:20;;;;;;;4.33;2.03;;;17.60;48.90;;;;;;5003966;28;20225;-68
2023/07/15 12:42:48;;;;;;;3.30;2.00;;;17.60;49.30;;;;;;5002609;28;20196;-68
2023/07/15 12:45:16;;;;;;;2.73;2.07;;;17.60;49.70;;;;;;5002654;28;20189;-69
2023/07/15 12:47:43;;;;;;;3.53;2.00;;;17.60;49.90;;;;;;5006478;28;20703;-66
2023/07/15 12:50:10;;;;;;;3.63;2.20;;;17.50;49.00;;;;;;5008792;28;20267;-68
2023/07/15 12:52:38;;;;;;;2.10;1.90;;;17.60;49.30;;;;;;5005481;28;20207;-66
2023/07/15 12:55:05;;;;;;;3.67;1.63;;;17.60;49.10;;;;;;5005408;28;20248;-67
2023/07/15 12:57:32;;;;;;;2.73;1.80;;;17.60;48.70;;;;;;5001511;28;20185;-67